Time;durP1;ratioP1;P1;durP2;ratioP2;P2;SDS_P1;SDS_P2;PMS_P1;PMS_P2;Temp;Humidity;BMP_temperature;BMP_pressure;BME280_temperature;BME280_humidity;BME280_pressure;Samples;Min_cycle;Max_cycle;Signal;HPM_P1;HPM_P2
2022/10/08 00:00:06;;;;;;;11.57;3.33;;;13.30;99.90;;;;;;5068532;28;20040;-42
2022/10/08 00:02:37;;;;;;;13.18;3.42;;;13.30;99.90;;;;;;5078678;28;20419;-43
2022/10/08 00:05:05;;;;;;;15.43;3.83;;;13.30;99.90;;;;;;5072477;28;20054;-43
2022/10/08 00:07:31;;;;;;;12.93;2.95;;;13.30;99.90;;;;;;5077089;28;20058;-42
2022/10/08 00:09:58;;;;;;;13.52;3.58;;;13.30;99.90;;;;;;5076217;28;20141;-43
2022/10/08 00:12:24;;;;;;;13.30;3.72;;;13.30;99.90;;;;;;5061069;28;20052;-43
2022/10/08 00:14:50;;;;;;;16.45;3.75;;;13.30;99.90;;;;;;5066747;28;20109;-43
2022/10/08 00:17:16;;;;;;;12.38;3.95;;;13.30;99.90;;;;;;5078648;28;20491;-43
2022/10/08 00:19:42;;;;;;;10.95;2.88;;;13.20;99.90;;;;;;5076117;28;20093;-42
2022/10/08 00:22:08;;;;;;;14.30;3.88;;;13.20;99.90;;;;;;5072999;28;20048;-44
2022/10/08 00:24:34;;;;;;;11.05;3.38;;;13.20;99.90;;;;;;5077047;28;20374;-44
2022/10/08 00:27:00;;;;;;;12.18;3.92;;;13.10;99.90;;;;;;5075440;28;20079;-42
2022/10/08 00:29:26;;;;;;;12.95;3.75;;;13.10;99.90;;;;;;5056471;28;20103;-44
2022/10/08 00:31:53;;;;;;;15.45;4.45;;;13.00;99.90;;;;;;5074361;28;20048;-41
2022/10/08 00:34:22;;;;;;;8.98;3.85;;;12.90;99.90;;;;;;5073836;28;20501;-41
2022/10/08 00:36:53;;;;;;;9.60;3.67;;;12.80;99.90;;;;;;5076253;28;20101;-42
2022/10/08 00:39:21;;;;;;;11.77;3.63;;;12.70;99.90;;;;;;5077725;28;20044;-45
2022/10/08 00:41:51;;;;;;;11.73;4.22;;;12.70;99.90;;;;;;5077422;28;20844;-42
2022/10/08 00:44:45;;;;;;;15.02;4.95;;;12.60;99.90;;;;;;5078125;28;20040;-48
2022/10/08 00:47:47;;;;;;;18.15;4.25;;;12.60;99.90;;;;;;5071167;28;20052;-42
2022/10/08 00:50:34;;;;;;;10.15;3.92;;;12.60;99.90;;;;;;5079060;28;20048;-42
2022/10/08 00:53:04;;;;;;;9.80;3.60;;;12.50;99.90;;;;;;5035242;28;20060;-44
2022/10/08 00:55:31;;;;;;;16.00;3.95;;;12.50;99.90;;;;;;5076914;28;20101;-43
2022/10/08 00:58:03;;;;;;;12.75;3.85;;;12.50;99.90;;;;;;5041457;28;20156;-42
2022/10/08 01:00:31;;;;;;;16.23;4.28;;;12.50;99.90;;;;;;5074168;28;20047;-43
2022/10/08 01:02:58;;;;;;;11.80;4.03;;;12.40;99.90;;;;;;5055909;28;20063;-51
2022/10/08 01:05:43;;;;;;;16.20;4.47;;;12.40;99.90;;;;;;5073722;28;20043;-48
2022/10/08 01:08:34;;;;;;;11.70;4.07;;;12.40;99.90;;;;;;5074481;28;20181;-49
2022/10/08 01:11:13;;;;;;;13.27;5.13;;;12.40;99.90;;;;;;5067434;28;20052;-51
2022/10/08 01:13:56;;;;;;;13.13;4.82;;;12.40;99.90;;;;;;5060041;28;20043;-42
2022/10/08 01:16:34;;;;;;;13.82;4.93;;;12.40;99.90;;;;;;5077530;28;20555;-49
2022/10/08 01:19:21;;;;;;;13.90;5.15;;;12.40;99.90;;;;;;5074844;28;20135;-49
2022/10/08 01:22:21;;;;;;;9.35;4.32;;;12.30;99.90;;;;;;5079144;28;20494;-49
2022/10/08 01:27:49;;;;;;;10.20;5.00;;;12.30;99.90;;;;;;5080136;28;20052;-49
2022/10/08 01:30:17;;;;;;;13.32;5.72;;;12.30;99.90;;;;;;5076130;28;20079;-41
2022/10/08 01:32:55;;;;;;;9.77;4.53;;;12.30;99.90;;;;;;5078053;28;20159;-50
2022/10/08 01:35:33;;;;;;;10.88;4.68;;;12.30;99.90;;;;;;5079715;28;20052;-50
2022/10/08 01:38:03;;;;;;;11.88;5.03;;;12.30;99.90;;;;;;5074549;28;20053;-50
2022/10/08 01:40:38;;;;;;;7.97;4.32;;;12.30;99.90;;;;;;5059005;28;20048;-49
2022/10/08 01:43:09;;;;;;;9.80;4.82;;;12.30;99.90;;;;;;5080118;28;20120;-48
2022/10/08 01:45:40;;;;;;;12.98;5.57;;;12.30;99.90;;;;;;5080921;28;20084;-42
2022/10/08 01:48:13;;;;;;;9.40;4.40;;;12.30;99.90;;;;;;5080693;28;20048;-40
2022/10/08 01:50:57;;;;;;;9.07;4.32;;;12.30;99.90;;;;;;5059830;28;20044;-41
2022/10/08 01:53:27;;;;;;;12.88;5.03;;;12.30;99.90;;;;;;5079618;28;20068;-41
2022/10/08 01:55:55;;;;;;;10.45;4.93;;;12.30;99.90;;;;;;5081387;28;20686;-42
2022/10/08 01:58:33;;;;;;;9.50;4.65;;;12.30;99.90;;;;;;5078415;28;20043;-40
2022/10/08 02:01:11;;;;;;;9.90;4.50;;;12.30;99.90;;;;;;5063184;28;20087;-50
2022/10/08 02:03:37;;;;;;;9.80;4.20;;;12.30;99.90;;;;;;5075003;28;20113;-50
2022/10/08 02:06:05;;;;;;;12.57;5.38;;;12.30;99.90;;;;;;5056399;28;20079;-51
2022/10/08 02:08:31;;;;;;;12.70;4.18;;;12.30;99.90;;;;;;5079994;28;20075;-49
2022/10/08 02:10:57;;;;;;;9.38;4.05;;;12.30;99.90;;;;;;5080883;28;20517;-42
2022/10/08 02:13:24;;;;;;;8.40;4.47;;;12.40;99.90;;;;;;5079162;28;20068;-50
2022/10/08 02:16:01;;;;;;;12.27;4.25;;;12.40;99.90;;;;;;5095207;28;20051;-51
2022/10/08 02:18:41;;;;;;;8.43;3.95;;;12.40;99.90;;;;;;5074034;28;20570;-49
2022/10/08 02:21:23;;;;;;;9.63;4.50;;;12.40;99.90;;;;;;5075370;28;20055;-47
2022/10/08 02:23:56;;;;;;;8.73;4.13;;;12.40;99.90;;;;;;5076357;28;20852;-48
2022/10/08 02:26:32;;;;;;;8.45;4.05;;;12.40;99.90;;;;;;5062046;28;20047;-49
2022/10/08 02:29:12;;;;;;;8.80;4.63;;;12.30;99.90;;;;;;5072561;28;20795;-48
2022/10/08 02:32:11;;;;;;;10.60;4.20;;;12.30;99.90;;;;;;5048841;28;20080;-43
2022/10/08 02:34:43;;;;;;;9.32;3.60;;;12.30;99.90;;;;;;5071087;28;20106;-47
2022/10/08 02:37:14;;;;;;;12.27;4.15;;;12.30;99.90;;;;;;5060668;28;20056;-52
2022/10/08 02:39:47;;;;;;;6.10;4.17;;;12.30;99.90;;;;;;5060590;28;20059;-46
2022/10/08 02:42:18;;;;;;;8.40;3.92;;;12.30;99.90;;;;;;5078238;28;20411;-48
2022/10/08 02:44:57;;;;;;;8.00;4.10;;;12.30;99.90;;;;;;5074978;28;20048;-52
2022/10/08 02:47:29;;;;;;;7.97;4.15;;;12.30;99.90;;;;;;5079164;28;20734;-48
2022/10/08 02:50:04;;;;;;;9.75;4.03;;;12.30;99.90;;;;;;5060547;28;20052;-42
2022/10/08 02:52:38;;;;;;;9.02;4.07;;;12.30;99.90;;;;;;5059471;28;20126;-42
2022/10/08 02:55:19;;;;;;;7.85;3.97;;;12.30;99.90;;;;;;5061947;28;20384;-52
2022/10/08 02:57:53;;;;;;;10.45;4.57;;;12.20;99.90;;;;;;5067102;28;20052;-42
2022/10/08 03:00:20;;;;;;;6.80;3.97;;;12.20;99.90;;;;;;5076772;28;20101;-49
2022/10/08 03:02:55;;;;;;;9.30;4.53;;;12.10;99.90;;;;;;5044067;28;20047;-41
2022/10/08 03:05:21;;;;;;;10.30;4.15;;;12.00;99.90;;;;;;5078153;28;20492;-42
2022/10/08 03:07:50;;;;;;;8.52;4.80;;;12.00;99.90;;;;;;5076572;28;20274;-40
2022/10/08 03:10:17;;;;;;;10.32;4.57;;;11.90;99.90;;;;;;5054326;28;20047;-42
2022/10/08 03:12:43;;;;;;;8.38;4.88;;;11.80;99.90;;;;;;5081631;28;20067;-42
2022/10/08 03:15:12;;;;;;;14.90;5.25;;;11.70;99.90;;;;;;5078662;28;20055;-43
2022/10/08 03:17:43;;;;;;;9.98;4.57;;;11.60;99.90;;;;;;5069440;28;20161;-42
2022/10/08 03:20:10;;;;;;;9.40;4.20;;;11.60;99.90;;;;;;5073093;28;20040;-47
2022/10/08 03:22:37;;;;;;;11.60;4.75;;;11.40;99.90;;;;;;5072577;28;20483;-47
2022/10/08 03:25:03;;;;;;;9.65;4.57;;;11.40;99.90;;;;;;5079932;28;20052;-41
2022/10/08 03:27:30;;;;;;;11.10;4.28;;;11.30;99.90;;;;;;5075756;28;20047;-42
2022/10/08 03:29:56;;;;;;;10.43;4.38;;;11.20;99.90;;;;;;5057082;28;20052;-40
2022/10/08 03:32:25;;;;;;;8.45;4.30;;;11.20;99.90;;;;;;5059189;28;20121;-51
2022/10/08 03:34:52;;;;;;;8.18;3.70;;;11.10;99.90;;;;;;5078563;28;20054;-42
2022/10/08 03:37:19;;;;;;;9.07;4.32;;;11.10;99.90;;;;;;5057660;28;20086;-44
2022/10/08 03:39:45;;;;;;;11.10;4.75;;;11.00;99.90;;;;;;5074305;28;20044;-42
2022/10/08 03:42:12;;;;;;;9.25;3.97;;;11.00;99.90;;;;;;5078153;28;20040;-42
2022/10/08 03:44:38;;;;;;;9.50;4.28;;;11.00;99.90;;;;;;5078874;28;20056;-43
2022/10/08 03:47:04;;;;;;;10.38;4.53;;;10.90;99.90;;;;;;5075411;28;20048;-41
2022/10/08 03:49:30;;;;;;;12.15;4.38;;;10.90;99.90;;;;;;5070506;28;20079;-43
2022/10/08 03:51:56;;;;;;;10.00;5.07;;;10.90;99.90;;;;;;5061966;28;20495;-41
2022/10/08 03:54:22;;;;;;;10.25;4.50;;;10.90;99.90;;;;;;5093583;28;20117;-42
2022/10/08 03:56:48;;;;;;;8.00;4.32;;;10.90;99.90;;;;;;5076124;28;20052;-43
2022/10/08 03:59:15;;;;;;;8.73;4.60;;;10.90;99.90;;;;;;5055065;28;20214;-50
2022/10/08 04:01:41;;;;;;;12.20;4.25;;;10.90;99.90;;;;;;5050745;28;20044;-51
2022/10/08 04:04:07;;;;;;;12.25;4.70;;;10.80;99.90;;;;;;5079309;28;20694;-41
2022/10/08 04:06:33;;;;;;;8.32;4.20;;;10.80;99.90;;;;;;5077435;28;20051;-44
2022/10/08 04:09:02;;;;;;;10.77;4.90;;;10.80;99.90;;;;;;5059273;28;20149;-44
2022/10/08 04:11:28;;;;;;;12.00;4.43;;;10.90;99.90;;;;;;5078919;28;20055;-42
2022/10/08 04:13:55;;;;;;;11.68;4.65;;;10.90;99.90;;;;;;5074334;28;20056;-44
2022/10/08 04:16:21;;;;;;;15.98;5.60;;;11.00;99.90;;;;;;5078297;28;20048;-48
2022/10/08 04:18:47;;;;;;;11.27;4.90;;;11.00;99.90;;;;;;5050099;28;20068;-49
2022/10/08 04:21:16;;;;;;;13.10;4.88;;;11.10;99.90;;;;;;5075038;28;20054;-48
2022/10/08 04:23:43;;;;;;;8.82;5.13;;;11.10;99.90;;;;;;5070605;28;20495;-48
2022/10/08 04:26:12;;;;;;;12.65;5.05;;;11.10;99.90;;;;;;5076350;28;20561;-47
2022/10/08 04:28:39;;;;;;;11.77;4.88;;;11.20;99.90;;;;;;5057571;28;20091;-47
2022/10/08 04:31:17;;;;;;;15.77;5.03;;;11.30;99.90;;;;;;5076578;28;20094;-49
2022/10/08 04:33:45;;;;;;;14.98;6.00;;;11.30;99.90;;;;;;5078019;28;20463;-49
2022/10/08 04:36:14;;;;;;;9.82;5.10;;;11.30;99.90;;;;;;5075592;28;20137;-51
2022/10/08 04:38:47;;;;;;;10.23;5.47;;;11.30;99.90;;;;;;5077424;28;20044;-51
2022/10/08 04:41:19;;;;;;;13.77;5.72;;;11.40;99.90;;;;;;5074407;28;20104;-49
2022/10/08 04:43:45;;;;;;;12.65;5.65;;;11.50;99.90;;;;;;5078770;28;20081;-43
2022/10/08 04:46:14;;;;;;;12.77;5.18;;;11.50;99.90;;;;;;5078071;28;20050;-50
2022/10/08 04:48:46;;;;;;;9.90;4.70;;;11.50;99.90;;;;;;5057107;28;20415;-42
2022/10/08 04:51:13;;;;;;;13.45;4.80;;;11.50;99.90;;;;;;5089549;28;20102;-40
2022/10/08 04:53:39;;;;;;;8.35;4.70;;;11.60;99.90;;;;;;5060813;28;20780;-41
2022/10/08 04:56:18;;;;;;;10.73;4.32;;;11.60;99.90;;;;;;5043802;28;20048;-50
2022/10/08 04:58:47;;;;;;;12.00;4.60;;;11.50;99.90;;;;;;5083105;28;20036;-52
2022/10/08 05:01:17;;;;;;;10.68;4.95;;;11.60;99.90;;;;;;5079940;28;20699;-48
2022/10/08 05:03:46;;;;;;;13.25;5.55;;;11.60;99.90;;;;;;5080206;28;20125;-41
2022/10/08 05:06:16;;;;;;;12.80;5.55;;;11.60;99.90;;;;;;5072059;28;20683;-41
2022/10/08 05:08:43;;;;;;;16.00;5.43;;;11.60;99.90;;;;;;5075653;28;20144;-49
2022/10/08 05:11:10;;;;;;;12.52;4.95;;;11.60;99.90;;;;;;5075375;28;20119;-41
2022/10/08 05:13:37;;;;;;;12.45;5.00;;;11.60;99.90;;;;;;5074860;28;20545;-40
2022/10/08 05:16:06;;;;;;;12.55;5.05;;;11.60;99.90;;;;;;5074932;28;20754;-52
2022/10/08 05:18:33;;;;;;;13.48;4.35;;;11.60;99.90;;;;;;5059402;28;20139;-40
2022/10/08 05:21:05;;;;;;;11.50;5.28;;;11.50;99.90;;;;;;5073604;28;20046;-41
2022/10/08 05:23:31;;;;;;;;;;;11.50;99.90;;;;;;5059203;28;20047;-41
2022/10/08 05:25:58;;;;;;;8.88;4.50;;;11.50;99.90;;;;;;5075081;28;20383;-40
2022/10/08 05:28:24;;;;;;;12.98;5.30;;;11.40;99.90;;;;;;5081046;28;20036;-48
2022/10/08 05:31:00;;;;;;;11.07;3.97;;;11.40;99.90;;;;;;5074373;28;20058;-49
2022/10/08 05:33:26;;;;;;;12.85;4.60;;;11.30;99.90;;;;;;5075560;28;20510;-49
2022/10/08 05:35:52;;;;;;;13.70;4.57;;;11.20;99.90;;;;;;5074773;28;20529;-39
2022/10/08 05:38:18;;;;;;;11.88;3.67;;;11.20;99.90;;;;;;5062086;28;20044;-52
2022/10/08 05:40:45;;;;;;;12.65;4.47;;;11.10;99.90;;;;;;5048166;28;20054;-40
2022/10/08 05:43:11;;;;;;;14.57;4.22;;;11.10;99.90;;;;;;5078086;28;20483;-40
2022/10/08 05:45:37;;;;;;;11.90;4.07;;;11.00;99.90;;;;;;5075374;28;20044;-39
2022/10/08 05:48:03;;;;;;;11.90;3.83;;;11.00;99.90;;;;;;5061427;28;20139;-40
2022/10/08 05:50:29;;;;;;;13.77;3.83;;;10.90;99.90;;;;;;5082285;28;20091;-40
2022/10/08 05:52:55;;;;;;;11.75;4.05;;;10.90;99.90;;;;;;5073410;28;20083;-51
2022/10/08 05:55:21;;;;;;;13.77;3.78;;;10.90;99.90;;;;;;5055330;28;20044;-49
2022/10/08 05:57:47;;;;;;;13.23;4.22;;;10.80;99.90;;;;;;5077796;28;20052;-42
2022/10/08 06:00:14;;;;;;;9.43;3.83;;;10.80;99.90;;;;;;5072259;28;20282;-49
2022/10/08 06:02:40;;;;;;;10.57;4.00;;;10.70;99.90;;;;;;5075148;28;20051;-50
2022/10/08 06:05:06;;;;;;;12.68;4.32;;;10.70;99.90;;;;;;5072016;28;20046;-53
2022/10/08 06:07:32;;;;;;;15.10;4.88;;;10.60;99.90;;;;;;5075714;28;20055;-52
2022/10/08 06:09:58;;;;;;;11.43;4.82;;;10.60;99.90;;;;;;5070198;28;20676;-40
2022/10/08 06:12:24;;;;;;;13.15;4.85;;;10.60;99.90;;;;;;5058606;28;20048;-40
2022/10/08 06:14:50;;;;;;;13.57;4.38;;;10.70;99.90;;;;;;5076247;28;20122;-40
2022/10/08 06:17:16;;;;;;;11.30;4.60;;;10.80;99.90;;;;;;5071504;28;20048;-51
2022/10/08 06:19:42;;;;;;;13.63;5.22;;;10.80;99.90;;;;;;5077089;28;20554;-52
2022/10/08 06:22:09;;;;;;;13.10;4.78;;;10.90;99.90;;;;;;5073990;28;22339;-40
2022/10/08 06:24:35;;;;;;;17.00;5.80;;;10.90;99.90;;;;;;5078475;28;20059;-49
2022/10/08 06:27:01;;;;;;;16.33;5.90;;;10.80;99.90;;;;;;5070063;28;20055;-48
2022/10/08 06:29:27;;;;;;;19.75;6.63;;;10.90;99.90;;;;;;5067710;28;20938;-40
2022/10/08 06:31:54;;;;;;;10.68;5.60;;;10.80;99.90;;;;;;5070962;28;21047;-40
2022/10/08 06:34:23;;;;;;;15.45;6.40;;;10.90;99.90;;;;;;5054445;28;20052;-40
2022/10/08 06:36:49;;;;;;;13.40;6.57;;;10.90;99.90;;;;;;5053810;28;20048;-40
2022/10/08 06:39:16;;;;;;;56.55;45.25;;;10.90;99.90;;;;;;5075938;28;20526;-48
2022/10/08 06:41:43;;;;;;;13.32;6.53;;;11.00;99.90;;;;;;5056912;28;20051;-52
2022/10/08 06:44:12;;;;;;;13.50;6.07;;;10.90;99.90;;;;;;5074078;28;20063;-53
2022/10/08 06:46:38;;;;;;;14.45;6.10;;;11.00;99.90;;;;;;5071634;28;20539;-49
2022/10/08 06:49:05;;;;;;;16.90;7.05;;;11.00;99.90;;;;;;5038351;28;20876;-48
2022/10/08 06:51:31;;;;;;;14.75;6.30;;;11.00;99.90;;;;;;5090092;28;20059;-49
2022/10/08 06:53:58;;;;;;;16.35;6.32;;;11.10;99.90;;;;;;5087317;28;20054;-48
2022/10/08 06:56:25;;;;;;;11.88;5.95;;;11.10;99.90;;;;;;5066956;28;20084;-51
2022/10/08 06:58:51;;;;;;;9.90;5.88;;;11.10;99.90;;;;;;5071275;28;20059;-48
2022/10/08 07:01:20;;;;;;;12.88;5.28;;;11.20;99.90;;;;;;5054972;28;20151;-51
2022/10/08 07:04:05;;;;;;;11.15;4.90;;;11.20;99.90;;;;;;5069275;28;20058;-50
2022/10/08 07:06:34;;;;;;;13.23;5.50;;;11.30;99.90;;;;;;5069884;28;20628;-41
2022/10/08 07:09:02;;;;;;;14.15;4.90;;;11.30;99.90;;;;;;5054873;28;20109;-43
2022/10/08 07:11:30;;;;;;;12.20;4.78;;;11.50;99.90;;;;;;5071033;28;20052;-42
2022/10/08 07:13:57;;;;;;;11.82;5.00;;;11.60;99.90;;;;;;5072868;28;20676;-43
2022/10/08 07:16:25;;;;;;;10.35;3.90;;;11.80;99.90;;;;;;5071313;28;20048;-46
2022/10/08 07:18:55;;;;;;;11.27;3.50;;;12.00;99.90;;;;;;5066673;28;20114;-43
2022/10/08 07:21:21;;;;;;;13.98;4.63;;;12.30;99.90;;;;;;5073189;28;20491;-43
2022/10/08 07:23:48;;;;;;;13.93;3.50;;;12.70;99.90;;;;;;5054399;28;20062;-43
2022/10/08 07:26:25;;;;;;;9.27;3.88;;;12.90;99.90;;;;;;5073174;28;20265;-42
2022/10/08 07:28:58;;;;;;;12.02;3.67;;;13.00;99.90;;;;;;5070929;28;20056;-44
2022/10/08 07:31:28;;;;;;;13.05;3.75;;;12.80;99.90;;;;;;5071316;28;20054;-42
2022/10/08 07:33:59;;;;;;;10.73;3.10;;;12.80;99.90;;;;;;5055722;28;20160;-46
2022/10/08 07:36:27;;;;;;;8.82;2.88;;;13.00;99.90;;;;;;5056946;28;20576;-44
2022/10/08 07:39:02;;;;;;;13.80;4.18;;;13.00;99.90;;;;;;5075331;28;20084;-43
2022/10/08 07:41:29;;;;;;;10.70;3.30;;;13.00;99.90;;;;;;5072275;28;20132;-49
2022/10/08 07:43:58;;;;;;;12.68;3.20;;;12.90;99.90;;;;;;5032813;28;20058;-44
2022/10/08 07:46:30;;;;;;;11.55;2.83;;;13.40;99.90;;;;;;5055038;28;20574;-48
2022/10/08 07:48:57;;;;;;;9.40;2.47;;;13.80;99.90;;;;;;5073549;28;20096;-52
2022/10/08 07:51:25;;;;;;;12.07;2.25;;;14.20;99.90;;;;;;5067614;28;20056;-50
2022/10/08 07:53:51;;;;;;;9.45;2.50;;;14.90;99.90;;;;;;5054012;28;20056;-51
2022/10/08 07:56:20;;;;;;;12.48;2.65;;;15.40;99.90;;;;;;5070972;28;20077;-49
2022/10/08 07:58:47;;;;;;;8.82;2.28;;;15.90;99.90;;;;;;5068629;28;20075;-45
2022/10/08 08:01:19;;;;;;;9.73;2.35;;;16.00;99.90;;;;;;5070104;28;20290;-51
2022/10/08 08:03:51;;;;;;;10.13;1.90;;;16.60;99.90;;;;;;5072677;28;20048;-47
2022/10/08 08:06:16;;;;;;;;;;;17.00;99.90;;;;;;5083913;28;20601;-44
2022/10/08 08:08:44;;;;;;;12.90;2.30;;;16.60;99.90;;;;;;5074636;28;19920;-44
2022/10/08 08:11:14;;;;;;;14.07;5.70;;;17.40;99.90;;;;;;5068407;28;20054;-46
2022/10/08 08:13:41;;;;;;;8.70;2.33;;;17.40;99.90;;;;;;5052818;28;20052;-44
2022/10/08 08:16:09;;;;;;;8.55;2.78;;;17.90;99.90;;;;;;5074003;28;20059;-44
2022/10/08 08:18:39;;;;;;;8.90;2.88;;;18.20;99.90;;;;;;5070572;28;20143;-46
2022/10/08 08:21:14;;;;;;;10.18;3.83;;;18.40;99.90;;;;;;5069827;28;20731;-48
2022/10/08 08:23:52;;;;;;;6.78;1.95;;;18.30;99.90;;;;;;5052818;28;20122;-50
2022/10/08 08:26:22;;;;;;;9.20;1.90;;;18.70;99.90;;;;;;5067641;28;20137;-47
2022/10/08 08:28:52;;;;;;;11.35;3.28;;;18.90;99.90;;;;;;5054253;28;20160;-45
2022/10/08 08:31:25;;;;;;;8.02;2.63;;;19.30;99.90;;;;;;5052808;28;20047;-44
2022/10/08 08:33:56;;;;;;;7.75;2.15;;;19.50;99.90;;;;;;5070984;28;20067;-45
2022/10/08 08:36:28;;;;;;;9.23;2.38;;;19.70;99.90;;;;;;5076659;28;20052;-43
2022/10/08 08:38:55;;;;;;;10.18;2.55;;;19.80;99.90;;;;;;5051262;28;20055;-47
2022/10/08 08:41:41;;;;;;;9.40;2.25;;;19.70;99.90;;;;;;5073297;28;20414;-43
2022/10/08 08:44:16;;;;;;;10.75;2.53;;;20.00;99.90;;;;;;5075364;28;20372;-46
2022/10/08 08:46:49;;;;;;;9.00;2.20;;;20.00;99.90;;;;;;5055723;28;20078;-44
2022/10/08 08:49:36;;;;;;;5.88;2.03;;;20.10;99.90;;;;;;5071940;28;20091;-44
2022/10/08 08:52:04;;;;;;;9.05;3.15;;;19.90;99.90;;;;;;5074007;28;20390;-45
2022/10/08 08:54:30;;;;;;;7.15;2.20;;;19.80;99.90;;;;;;5072802;28;20041;-46
2022/10/08 08:57:07;;;;;;;9.30;2.30;;;20.60;99.90;;;;;;5075163;28;20044;-45
2022/10/08 08:59:42;;;;;;;8.32;2.00;;;20.70;99.90;;;;;;5090661;28;20097;-44
2022/10/08 09:02:25;;;;;;;7.03;1.83;;;20.80;99.90;;;;;;5073022;28;20053;-42
2022/10/08 09:04:59;;;;;;;9.05;1.85;;;21.10;99.90;;;;;;5075884;28;20142;-52
2022/10/08 09:07:32;;;;;;;10.10;2.72;;;21.00;99.90;;;;;;5070804;28;20059;-46
2022/10/08 09:09:59;;;;;;;7.70;1.90;;;21.70;99.90;;;;;;5074653;28;20052;-46
2022/10/08 09:12:46;;;;;;;8.63;2.10;;;21.30;99.90;;;;;;5066333;28;20044;-45
2022/10/08 09:15:23;;;;;;;6.07;1.67;;;20.90;99.90;;;;;;5071480;28;20079;-47
2022/10/08 09:17:51;;;;;;;8.38;1.55;;;19.90;99.90;;;;;;5076079;28;20056;-46
2022/10/08 09:20:22;;;;;;;8.70;1.80;;;19.70;99.90;;;;;;5075535;28;20075;-47
2022/10/08 09:22:50;;;;;;;8.48;1.58;;;19.90;99.90;;;;;;5067707;28;20048;-46
2022/10/08 09:25:23;;;;;;;7.85;1.40;;;19.60;99.90;;;;;;5066026;28;20040;-43
2022/10/08 09:27:59;;;;;;;6.75;1.10;;;19.00;99.90;;;;;;5075290;28;20043;-43
2022/10/08 09:30:25;;;;;;;6.75;1.70;;;19.30;99.90;;;;;;5071997;28;20062;-45
2022/10/08 09:32:53;;;;;;;6.63;1.30;;;19.00;99.90;;;;;;5070069;28;20063;-46
2022/10/08 09:35:20;;;;;;;6.25;1.38;;;18.70;99.90;;;;;;5073035;28;20083;-51
2022/10/08 09:37:47;;;;;;;4.40;1.20;;;18.50;99.90;;;;;;5069991;28;20059;-53
2022/10/08 09:40:25;;;;;;;6.80;1.70;;;19.00;99.90;;;;;;5042792;28;20044;-51
2022/10/08 09:43:10;;;;;;;6.63;2.53;;;19.50;99.90;;;;;;5070058;28;20075;-50
2022/10/08 09:45:43;;;;;;;5.38;1.20;;;19.50;99.90;;;;;;5074807;28;20047;-50
2022/10/08 09:48:40;;;;;;;7.47;1.23;;;19.60;99.90;;;;;;5072214;28;20036;-44
2022/10/08 09:51:15;;;;;;;5.47;1.70;;;19.50;99.90;;;;;;5062626;28;20054;-44
2022/10/08 09:53:53;;;;;;;8.55;1.45;;;19.90;99.90;;;;;;5071981;28;20450;-45
2022/10/08 09:56:26;;;;;;;6.63;1.75;;;19.70;99.90;;;;;;5075839;28;20483;-43
2022/10/08 09:58:57;;;;;;;7.80;1.40;;;20.40;99.90;;;;;;5063194;28;20044;-43
2022/10/08 10:01:24;;;;;;;5.87;1.00;;;20.10;99.90;;;;;;5056881;28;20062;-45
2022/10/08 10:03:58;;;;;;;6.68;1.83;;;20.70;99.90;;;;;;5069693;28;20072;-52
2022/10/08 10:06:36;;;;;;;8.05;1.30;;;20.00;99.60;;;;;;5095177;28;20041;-46
2022/10/08 10:09:19;;;;;;;5.22;1.33;;;18.90;99.90;;;;;;5075249;28;20399;-51
2022/10/08 10:12:02;;;;;;;8.15;2.35;;;17.70;99.90;;;;;;5075864;28;20853;-41
2022/10/08 10:14:42;;;;;;;7.25;1.45;;;16.60;99.90;;;;;;5076797;28;20399;-50
2022/10/08 10:17:14;;;;;;;6.20;1.40;;;15.80;99.90;;;;;;5070393;28;20064;-40
2022/10/08 10:20:19;;;;;;;5.80;1.15;;;15.50;99.90;;;;;;5079149;28;20777;-41
2022/10/08 10:23:13;;;;;;;6.72;1.27;;;15.30;99.90;;;;;;5067858;28;20161;-50
2022/10/08 10:26:01;;;;;;;7.25;1.73;;;15.10;99.90;;;;;;5040222;28;20055;-50
2022/10/08 10:28:51;;;;;;;8.80;1.83;;;15.00;99.90;;;;;;5075417;28;20208;-42
2022/10/08 10:31:33;;;;;;;8.85;1.65;;;15.40;99.90;;;;;;5073946;28;20083;-51
2022/10/08 10:34:16;;;;;;;7.28;1.52;;;16.70;99.90;;;;;;5077610;28;20122;-50
2022/10/08 10:36:58;;;;;;;8.75;1.48;;;18.00;99.90;;;;;;5071598;28;20040;-48
2022/10/08 10:39:37;;;;;;;9.45;1.75;;;19.30;99.90;;;;;;5072463;28;20055;-49
2022/10/08 10:42:34;;;;;;;7.82;1.58;;;19.80;99.90;;;;;;5074958;28;20093;-48
2022/10/08 10:45:42;;;;;;;5.65;1.40;;;19.00;99.90;;;;;;5072734;28;20048;-51
2022/10/08 10:48:12;;;;;;;9.75;1.30;;;19.00;99.90;;;;;;5010581;28;20168;-43
2022/10/08 10:50:55;;;;;;;12.35;1.80;;;19.90;99.90;;;;;;5012991;28;20933;-43
2022/10/08 10:53:43;;;;;;;5.53;1.13;;;20.50;99.90;;;;;;5053037;28;20522;-50
2022/10/08 10:56:18;;;;;;;7.07;1.52;;;21.00;99.90;;;;;;5055724;28;20056;-43
2022/10/08 10:59:30;;;;;;;8.43;1.67;;;21.10;99.90;;;;;;5075988;28;20055;-43
2022/10/08 11:02:19;;;;;;;8.68;1.48;;;21.80;99.90;;;;;;5064449;28;20040;-41
2022/10/08 11:04:54;;;;;;;7.90;1.90;;;22.80;99.90;;;;;;5057300;28;20508;-43
2022/10/08 11:07:41;;;;;;;5.45;1.58;;;22.70;98.80;;;;;;5059956;28;20050;-43
2022/10/08 11:10:38;;;;;;;7.45;1.80;;;22.30;98.30;;;;;;5072340;28;20057;-42
2022/10/08 11:13:23;;;;;;;4.68;1.30;;;21.40;95.30;;;;;;5073816;28;20555;-40
2022/10/08 11:16:03;;;;;;;4.70;1.20;;;20.80;97.10;;;;;;5075010;28;20637;-49
2022/10/08 11:18:45;;;;;;;6.47;1.55;;;21.40;97.80;;;;;;5073971;28;20060;-51
2022/10/08 11:21:30;;;;;;;;;;;21.50;93.90;;;;;;5072097;28;20116;-50
2022/10/08 11:23:56;;;;;;;5.78;1.48;;;21.40;92.30;;;;;;5076269;28;20762;-52
2022/10/08 11:26:49;;;;;;;6.25;1.38;;;20.70;94.90;;;;;;5055822;28;20048;-52
2022/10/08 11:29:33;;;;;;;7.07;2.17;;;19.80;92.90;;;;;;5072935;28;20058;-41
2022/10/08 11:32:00;;;;;;;7.05;1.13;;;18.80;94.20;;;;;;5076044;28;20054;-50
2022/10/08 11:34:30;;;;;;;5.13;1.17;;;18.00;96.50;;;;;;5072102;28;20044;-42
2022/10/08 11:37:18;;;;;;;7.57;1.43;;;17.40;97.50;;;;;;5072095;28;20218;-51
2022/10/08 11:40:02;;;;;;;8.35;1.30;;;16.80;99.10;;;;;;5074109;28;20309;-52
2022/10/08 11:42:57;;;;;;;6.38;1.33;;;17.00;99.90;;;;;;5056905;28;20139;-41
2022/10/08 11:45:23;;;;;;;7.82;1.27;;;18.50;98.50;;;;;;5037929;28;20120;-43
2022/10/08 11:47:53;;;;;;;6.20;1.33;;;19.60;97.00;;;;;;5075377;28;20135;-44
2022/10/08 11:50:36;;;;;;;5.85;1.42;;;20.70;94.10;;;;;;5069817;28;20048;-51
2022/10/08 11:53:14;;;;;;;8.18;1.58;;;21.50;91.60;;;;;;5069004;28;20048;-49
2022/10/08 11:56:09;;;;;;;9.35;1.65;;;21.60;88.70;;;;;;5074577;28;20106;-49
2022/10/08 11:58:35;;;;;;;9.95;1.67;;;22.40;85.60;;;;;;5066205;28;20083;-51
2022/10/08 12:01:08;;;;;;;6.50;1.55;;;22.50;85.00;;;;;;5067654;28;20048;-52
2022/10/08 12:03:36;;;;;;;4.82;0.93;;;22.80;79.00;;;;;;5036217;28;20113;-52
2022/10/08 12:06:25;;;;;;;5.20;1.13;;;22.10;73.10;;;;;;5088973;28;20048;-51
2022/10/08 12:08:53;;;;;;;7.30;1.67;;;22.50;72.50;;;;;;5070000;28;20048;-52
2022/10/08 12:11:31;;;;;;;7.18;2.45;;;22.40;72.50;;;;;;5072941;28;20053;-42
2022/10/08 12:14:15;;;;;;;5.95;1.80;;;21.30;73.00;;;;;;5068677;28;20079;-41
2022/10/08 12:16:47;;;;;;;6.22;1.15;;;20.30;76.10;;;;;;5072159;28;20056;-41
2022/10/08 12:22:01;;;;;;;4.68;1.20;;;20.70;78.40;;;;;;5054560;28;20047;-42
2022/10/08 12:24:36;;;;;;;8.70;1.60;;;21.30;76.90;;;;;;5068274;28;20039;-43
2022/10/08 12:27:20;;;;;;;7.07;1.60;;;21.90;74.80;;;;;;5070300;28;20048;-48
2022/10/08 12:29:56;;;;;;;5.35;1.17;;;22.60;71.70;;;;;;5072304;28;20754;-43
2022/10/08 12:32:25;;;;;;;5.18;1.05;;;21.70;69.70;;;;;;5068053;28;20075;-43
2022/10/08 12:34:51;;;;;;;7.30;1.35;;;21.40;72.80;;;;;;5071079;28;20071;-42
2022/10/08 12:37:43;;;;;;;8.57;1.35;;;21.90;72.30;;;;;;5067059;28;20093;-43
2022/10/08 12:40:31;;;;;;;3.83;1.05;;;22.60;69.90;;;;;;5051712;28;20847;-45
2022/10/08 12:43:29;;;;;;;7.25;1.45;;;22.70;68.20;;;;;;5067609;28;20132;-46
2022/10/08 12:46:05;;;;;;;5.15;1.25;;;23.30;66.80;;;;;;5066104;28;20071;-49
2022/10/08 12:48:46;;;;;;;7.65;4.13;;;23.40;66.60;;;;;;5062334;28;20127;-42
2022/10/08 12:51:35;;;;;;;6.47;1.77;;;23.10;65.50;;;;;;5065600;28;20487;-48
2022/10/08 12:54:01;;;;;;;7.53;1.25;;;23.60;67.00;;;;;;5065067;28;20550;-52
2022/10/08 12:56:29;;;;;;;4.30;1.27;;;23.90;66.40;;;;;;5066703;28;20407;-48
2022/10/08 12:59:02;;;;;;;9.23;2.25;;;24.00;64.50;;;;;;5063260;28;20066;-44
2022/10/08 13:01:28;;;;;;;6.63;2.28;;;24.00;64.10;;;;;;5051649;28;20126;-50
2022/10/08 13:04:07;;;;;;;9.70;2.10;;;24.80;61.80;;;;;;5068314;28;20388;-48
2022/10/08 13:06:34;;;;;;;5.93;1.45;;;24.50;61.10;;;;;;5067929;28;20048;-45
2022/10/08 13:09:00;;;;;;;5.70;1.15;;;24.40;60.30;;;;;;5068304;28;20043;-48
2022/10/08 13:11:27;;;;;;;5.35;2.03;;;24.20;60.50;;;;;;5052093;28;20131;-44
2022/10/08 13:13:53;;;;;;;6.32;1.30;;;24.50;60.30;;;;;;5070652;28;20050;-43
2022/10/08 13:16:21;;;;;;;5.70;1.45;;;24.70;60.10;;;;;;5050350;28;20048;-46